Time;durP1;ratioP1;P1;durP2;ratioP2;P2;SDS_P1;SDS_P2;PMS_P1;PMS_P2;Temp;Humidity;BMP_temperature;BMP_pressure;BME280_temperature;BME280_humidity;BME280_pressure;Samples;Min_cycle;Max_cycle;Signal;HPM_P1;HPM_P2
2023/11/01 00:01:52;;;;;;;12.75;5.30;;;12.60;99.90;;;;;;5051973;28;20014;-81
2023/11/01 00:04:17;;;;;;;14.00;4.88;;;12.60;99.90;;;;;;5051194;28;20033;-81
2023/11/01 00:06:43;;;;;;;15.07;4.95;;;12.60;99.90;;;;;;5050844;28;20115;-81
2023/11/01 00:09:08;;;;;;;16.75;4.85;;;12.60;99.90;;;;;;5051228;28;20434;-81
2023/11/01 00:11:34;;;;;;;10.65;4.13;;;12.60;99.90;;;;;;5051141;28;20017;-83
2023/11/01 00:14:02;;;;;;;12.85;4.50;;;12.60;99.90;;;;;;5049697;28;20106;-82
2023/11/01 00:16:28;;;;;;;15.68;4.35;;;12.60;99.90;;;;;;5049904;28;20028;-82
2023/11/01 00:18:54;;;;;;;13.77;3.92;;;12.60;99.90;;;;;;5051341;28;20024;-82
2023/11/01 00:21:20;;;;;;;13.57;4.45;;;12.60;99.90;;;;;;5050795;28;20418;-81
2023/11/01 00:23:46;;;;;;;10.57;3.95;;;12.60;99.90;;;;;;5050697;28;20025;-82
2023/11/01 00:26:12;;;;;;;12.30;4.15;;;12.60;99.90;;;;;;5049931;28;20021;-81
2023/11/01 00:28:38;;;;;;;15.10;4.55;;;12.60;99.90;;;;;;5050543;28;20029;-82
2023/11/01 00:31:04;;;;;;;14.32;5.05;;;12.60;99.90;;;;;;5050982;28;20462;-82
2023/11/01 00:33:29;;;;;;;13.02;4.30;;;12.60;99.90;;;;;;5049224;28;20025;-82
2023/11/01 00:35:55;;;;;;;15.95;4.50;;;12.60;99.90;;;;;;5049801;28;20067;-83
2023/11/01 00:38:21;;;;;;;24.17;4.65;;;12.60;99.90;;;;;;5050695;28;20110;-82
2023/11/01 00:40:47;;;;;;;13.40;4.47;;;12.60;99.90;;;;;;5050746;28;20032;-81
2023/11/01 00:43:12;;;;;;;14.02;4.40;;;12.60;99.90;;;;;;5050757;28;20585;-82
2023/11/01 00:45:38;;;;;;;16.00;5.32;;;12.60;99.90;;;;;;5050769;28;20018;-81
2023/11/01 00:48:05;;;;;;;16.15;5.00;;;12.60;99.90;;;;;;5050835;28;20413;-83
2023/11/01 00:50:30;;;;;;;13.98;4.22;;;12.60;99.90;;;;;;5050572;28;20053;-82
2023/11/01 00:52:56;;;;;;;17.85;5.45;;;12.60;99.90;;;;;;5050812;28;20021;-81
2023/11/01 00:55:22;;;;;;;14.80;5.32;;;12.60;99.90;;;;;;5050743;28;20116;-83
2023/11/01 00:57:48;;;;;;;14.68;5.55;;;12.60;99.90;;;;;;5050418;28;20021;-81
2023/11/01 01:00:17;;;;;;;15.63;6.05;;;12.60;99.90;;;;;;5050245;28;20032;-82
2023/11/01 01:02:43;;;;;;;15.30;5.38;;;12.50;99.90;;;;;;5050927;28;20017;-82
2023/11/01 01:05:08;;;;;;;17.02;5.38;;;12.60;99.90;;;;;;5050503;28;20021;-82
2023/11/01 01:07:35;;;;;;;11.43;5.30;;;12.60;99.90;;;;;;5048893;28;20032;-81
2023/11/01 01:10:00;;;;;;;13.10;5.68;;;12.60;99.90;;;;;;5050296;28;20498;-81
2023/11/01 01:12:26;;;;;;;17.00;5.90;;;12.50;99.90;;;;;;5049250;28;20053;-82
2023/11/01 01:14:52;;;;;;;13.23;5.50;;;12.50;99.90;;;;;;5050005;28;20029;-83
2023/11/01 01:17:17;;;;;;;13.45;5.57;;;12.50;99.90;;;;;;5050677;28;20032;-83
2023/11/01 01:19:43;;;;;;;13.73;5.05;;;12.50;99.90;;;;;;5049438;28;20071;-81
2023/11/01 01:22:09;;;;;;;15.82;5.72;;;12.50;99.90;;;;;;5050470;28;20528;-80
2023/11/01 01:24:35;;;;;;;13.32;5.28;;;12.50;99.90;;;;;;5049703;28;20580;-82
2023/11/01 01:27:00;;;;;;;16.65;5.20;;;12.50;99.90;;;;;;5050255;28;20138;-81
2023/11/01 01:29:26;;;;;;;15.63;5.00;;;12.50;99.90;;;;;;5050142;28;20475;-83
2023/11/01 01:31:52;;;;;;;15.30;5.22;;;12.50;99.90;;;;;;5050196;28;20434;-83
2023/11/01 01:34:17;;;;;;;16.15;5.47;;;12.50;99.90;;;;;;5049443;28;20634;-82
2023/11/01 01:36:43;;;;;;;18.52;5.55;;;12.50;99.90;;;;;;5049589;28;20036;-81
2023/11/01 01:39:09;;;;;;;16.13;4.85;;;12.50;99.90;;;;;;5049479;28;20578;-81
2023/11/01 01:41:34;;;;;;;14.43;5.22;;;12.50;99.90;;;;;;5048824;28;20056;-80
2023/11/01 01:44:00;;;;;;;15.98;4.65;;;12.50;99.90;;;;;;5049060;28;20017;-82
2023/11/01 01:46:28;;;;;;;15.35;4.65;;;12.50;99.90;;;;;;5049023;28;20056;-82
2023/11/01 01:48:54;;;;;;;14.85;5.30;;;12.50;99.90;;;;;;5047215;28;20017;-80
2023/11/01 01:51:21;;;;;;;12.35;4.57;;;12.40;99.90;;;;;;5048367;28;20048;-81
2023/11/01 01:53:48;;;;;;;13.32;4.40;;;12.40;99.90;;;;;;5048595;28;20100;-81
2023/11/01 01:56:16;;;;;;;12.32;3.92;;;12.40;99.90;;;;;;5048943;28;20049;-82
2023/11/01 01:58:44;;;;;;;18.10;5.85;;;12.40;99.90;;;;;;5048828;28;20032;-82
2023/11/01 02:01:11;;;;;;;16.38;4.50;;;12.40;99.90;;;;;;5048303;28;20029;-81
2023/11/01 02:03:37;;;;;;;16.95;4.50;;;12.40;99.90;;;;;;5047991;28;20024;-82
2023/11/01 02:06:03;;;;;;;11.10;4.05;;;12.40;99.90;;;;;;5048741;28;20032;-82
2023/11/01 02:08:30;;;;;;;16.17;4.43;;;12.40;99.90;;;;;;5047162;28;20039;-81
2023/11/01 02:10:56;;;;;;;13.25;4.38;;;12.40;99.90;;;;;;5047046;28;20025;-81
2023/11/01 02:13:21;;;;;;;13.57;4.47;;;12.40;99.90;;;;;;5048325;28;20136;-82
2023/11/01 02:15:48;;;;;;;16.50;4.32;;;12.40;99.90;;;;;;5047254;28;20519;-81
2023/11/01 02:18:14;;;;;;;12.15;4.55;;;12.40;99.90;;;;;;5049155;28;20055;-83
2023/11/01 02:20:47;;;;;;;12.02;3.55;;;12.40;99.90;;;;;;5048760;28;20029;-82
2023/11/01 02:23:16;;;;;;;12.20;4.15;;;12.40;99.90;;;;;;5048837;28;20021;-82
2023/11/01 02:25:42;;;;;;;11.18;3.70;;;12.40;99.90;;;;;;5048739;28;20392;-81
2023/11/01 02:28:10;;;;;;;9.65;3.88;;;12.40;99.90;;;;;;5048465;28;20064;-81
2023/11/01 02:30:38;;;;;;;9.65;3.83;;;12.40;99.90;;;;;;5034328;28;20032;-81
2023/11/01 02:33:04;;;;;;;10.85;3.45;;;12.40;99.90;;;;;;5047073;28;20025;-81
2023/11/01 02:35:30;;;;;;;12.35;3.75;;;12.40;99.90;;;;;;5048285;28;20086;-81
2023/11/01 02:37:55;;;;;;;13.05;3.17;;;12.40;99.90;;;;;;5048178;28;20617;-82
2023/11/01 02:40:21;;;;;;;10.55;3.22;;;12.30;99.90;;;;;;5048088;28;20036;-82
2023/11/01 02:42:48;;;;;;;16.17;3.40;;;12.30;99.90;;;;;;5047920;28;20478;-82
2023/11/01 02:45:15;;;;;;;12.70;3.35;;;12.30;99.90;;;;;;5046449;28;20021;-82
2023/11/01 02:47:43;;;;;;;11.07;3.45;;;12.30;99.90;;;;;;5048075;28;20017;-82
2023/11/01 02:50:13;;;;;;;10.40;3.53;;;12.30;99.90;;;;;;5047110;28;20045;-82
2023/11/01 02:52:39;;;;;;;10.80;3.63;;;12.30;99.90;;;;;;5046110;28;20021;-82
2023/11/01 02:55:09;;;;;;;15.15;3.95;;;12.30;99.90;;;;;;5047415;28;20078;-81
2023/11/01 02:57:36;;;;;;;11.23;3.58;;;12.30;99.90;;;;;;5047535;28;20557;-81
2023/11/01 03:00:07;;;;;;;13.57;3.35;;;12.30;99.90;;;;;;5047440;28;20111;-81
2023/11/01 03:02:37;;;;;;;7.32;3.30;;;12.30;99.90;;;;;;5047480;28;20028;-81
2023/11/01 03:05:05;;;;;;;12.05;3.78;;;12.30;99.90;;;;;;5047010;28;20067;-81
2023/11/01 03:07:31;;;;;;;12.32;2.97;;;12.30;99.90;;;;;;5045923;28;20041;-82
2023/11/01 03:09:57;;;;;;;9.95;2.75;;;12.40;99.90;;;;;;5046824;28;20492;-81
2023/11/01 03:12:23;;;;;;;13.88;3.53;;;12.30;99.90;;;;;;5047050;28;20035;-81
2023/11/01 03:14:48;;;;;;;9.75;3.50;;;12.40;99.90;;;;;;5047124;28;20103;-82
2023/11/01 03:17:15;;;;;;;10.68;3.20;;;12.40;99.90;;;;;;5047490;28;20142;-83
2023/11/01 03:19:40;;;;;;;15.60;4.45;;;12.40;99.90;;;;;;5047016;28;20037;-82
2023/11/01 03:22:06;;;;;;;13.45;3.60;;;12.40;99.90;;;;;;5048506;28;20071;-82
2023/11/01 03:24:32;;;;;;;12.20;4.05;;;12.40;99.90;;;;;;5046838;28;20112;-82
2023/11/01 03:26:59;;;;;;;9.68;3.00;;;12.40;99.90;;;;;;5047372;28;20017;-82
2023/11/01 03:29:25;;;;;;;7.82;2.53;;;12.40;99.90;;;;;;5046586;28;20032;-82
2023/11/01 03:31:51;;;;;;;11.70;3.28;;;12.40;99.90;;;;;;5047533;28;20029;-82
2023/11/01 03:34:16;;;;;;;9.15;3.05;;;12.40;99.90;;;;;;5046310;28;20075;-80
2023/11/01 03:36:42;;;;;;;8.63;3.20;;;12.40;99.90;;;;;;5046234;28;20025;-82
2023/11/01 03:39:09;;;;;;;9.07;2.70;;;12.40;99.90;;;;;;5045907;28;20502;-80
2023/11/01 03:41:39;;;;;;;9.27;3.33;;;12.40;99.90;;;;;;5047390;28;20239;-82
2023/11/01 03:44:05;;;;;;;13.13;3.30;;;12.40;99.90;;;;;;5047415;28;20021;-82
2023/11/01 03:46:31;;;;;;;6.25;2.75;;;12.50;99.90;;;;;;5046979;28;20045;-81
2023/11/01 03:48:57;;;;;;;11.20;3.20;;;12.40;99.90;;;;;;5046989;28;20087;-81
2023/11/01 03:51:22;;;;;;;12.18;3.60;;;12.40;99.90;;;;;;5046600;28;20588;-81
2023/11/01 03:53:48;;;;;;;12.77;3.45;;;12.50;99.90;;;;;;5047099;28;20253;-80
2023/11/01 03:56:14;;;;;;;7.68;2.90;;;12.40;99.90;;;;;;5047157;28;20081;-81
2023/11/01 03:58:40;;;;;;;11.93;3.70;;;12.50;99.90;;;;;;5046784;28;20021;-81
2023/11/01 04:01:05;;;;;;;10.52;3.40;;;12.40;99.90;;;;;;5045200;28;20024;-81
2023/11/01 04:03:31;;;;;;;9.48;3.90;;;12.40;99.90;;;;;;5045195;28;20048;-81
2023/11/01 04:05:57;;;;;;;8.52;3.72;;;12.40;99.90;;;;;;5046471;28;20067;-84
2023/11/01 04:08:23;;;;;;;9.68;3.47;;;12.40;99.90;;;;;;5046745;28;20494;-81
2023/11/01 04:10:49;;;;;;;10.38;3.50;;;12.40;99.90;;;;;;5046801;28;20048;-81
2023/11/01 04:13:14;;;;;;;6.13;3.28;;;12.40;99.90;;;;;;5046836;28;20036;-82
2023/11/01 04:15:41;;;;;;;10.38;4.00;;;12.40;99.90;;;;;;5046644;28;20025;-81
2023/11/01 04:18:07;;;;;;;14.70;3.42;;;12.30;99.90;;;;;;5047011;28;20033;-81
2023/11/01 04:20:32;;;;;;;9.00;4.15;;;12.30;99.90;;;;;;5046461;28;20025;-81
2023/11/01 04:22:58;;;;;;;10.25;3.65;;;12.30;99.90;;;;;;5045665;28;20021;-81
2023/11/01 04:25:24;;;;;;;7.18;3.20;;;12.40;99.90;;;;;;5044943;28;20505;-81
2023/11/01 04:27:50;;;;;;;8.48;3.70;;;12.40;99.90;;;;;;5047057;28;20104;-81
2023/11/01 04:30:16;;;;;;;7.75;2.58;;;12.40;99.90;;;;;;5044867;28;20602;-81
2023/11/01 04:32:43;;;;;;;7.20;2.97;;;12.30;99.90;;;;;;5046560;28;20064;-81
2023/11/01 04:35:11;;;;;;;9.85;3.47;;;12.30;99.90;;;;;;5046033;28;20017;-81
2023/11/01 04:37:40;;;;;;;5.43;3.13;;;12.30;99.90;;;;;;5046453;28;20036;-81
2023/11/01 04:40:13;;;;;;;7.70;2.95;;;12.40;99.90;;;;;;5044696;28;20033;-81
2023/11/01 04:42:40;;;;;;;4.50;2.40;;;12.30;99.90;;;;;;5046380;28;20025;-80
2023/11/01 04:45:07;;;;;;;7.80;2.75;;;12.30;99.90;;;;;;5046388;28;20091;-80
2023/11/01 04:47:36;;;;;;;7.95;2.90;;;12.30;99.90;;;;;;5047904;28;20017;-79
2023/11/01 04:50:02;;;;;;;6.43;2.90;;;12.30;99.90;;;;;;5049326;28;20045;-79
2023/11/01 04:52:28;;;;;;;6.88;3.22;;;12.30;99.90;;;;;;5049899;28;20028;-79
2023/11/01 04:54:54;;;;;;;6.43;3.10;;;12.30;99.90;;;;;;5049516;28;20028;-80
2023/11/01 04:57:20;;;;;;;7.85;3.70;;;12.30;99.90;;;;;;5048408;28;20550;-80
2023/11/01 04:59:46;;;;;;;6.85;3.40;;;12.30;99.90;;;;;;5049725;28;20028;-80
2023/11/01 05:02:11;;;;;;;8.05;3.30;;;12.40;99.90;;;;;;5049569;28;20079;-80
2023/11/01 05:04:37;;;;;;;4.95;3.40;;;12.30;99.90;;;;;;5049164;28;20044;-80
2023/11/01 05:07:03;;;;;;;7.82;4.20;;;12.30;99.90;;;;;;5050066;28;20057;-81
2023/11/01 05:09:29;;;;;;;6.55;3.88;;;12.30;99.90;;;;;;5049452;28;20104;-80
2023/11/01 05:11:55;;;;;;;7.55;4.65;;;12.30;99.90;;;;;;5049748;28;20507;-80
2023/11/01 05:14:20;;;;;;;7.72;4.22;;;12.40;99.90;;;;;;5049233;28;20025;-79
2023/11/01 05:16:46;;;;;;;6.78;4.30;;;12.40;99.90;;;;;;5047972;28;20017;-79
2023/11/01 05:19:12;;;;;;;8.43;4.53;;;12.40;99.90;;;;;;5049276;28;20021;-79
2023/11/01 05:21:38;;;;;;;8.18;4.40;;;12.40;99.90;;;;;;5049161;28;20094;-79
2023/11/01 05:24:04;;;;;;;12.15;5.22;;;12.40;99.90;;;;;;5047991;28;20035;-79
2023/11/01 05:26:30;;;;;;;9.25;5.18;;;12.40;99.90;;;;;;5049074;28;20025;-79
2023/11/01 05:28:56;;;;;;;8.63;5.28;;;12.50;99.90;;;;;;5049311;28;20374;-79
2023/11/01 05:31:23;;;;;;;8.40;5.22;;;12.50;99.90;;;;;;5048998;28;20361;-79
2023/11/01 05:33:50;;;;;;;10.55;5.85;;;12.50;99.90;;;;;;5046395;28;20044;-78
2023/11/01 05:36:15;;;;;;;8.80;5.47;;;12.50;99.90;;;;;;5048607;28;20029;-80
2023/11/01 05:38:42;;;;;;;12.80;6.40;;;12.50;99.90;;;;;;5049477;28;20300;-80
2023/11/01 05:41:11;;;;;;;15.40;5.78;;;12.60;99.90;;;;;;5048844;28;20032;-80
2023/11/01 05:43:39;;;;;;;12.25;4.78;;;12.60;99.90;;;;;;5047444;28;20056;-79
2023/11/01 05:46:05;;;;;;;10.32;5.70;;;12.60;99.90;;;;;;5048896;28;20023;-85
2023/11/01 05:48:32;;;;;;;10.65;6.03;;;12.60;99.90;;;;;;5049069;28;20021;-80
2023/11/01 05:50:59;;;;;;;12.02;5.32;;;12.70;99.90;;;;;;5047217;28;20045;-81
2023/11/01 05:53:25;;;;;;;9.27;5.90;;;12.70;99.90;;;;;;5048794;28;20040;-80
2023/11/01 05:55:52;;;;;;;8.88;5.25;;;12.70;99.90;;;;;;5047233;28;20017;-79
2023/11/01 05:58:19;;;;;;;12.90;5.68;;;12.70;99.90;;;;;;5048214;28;20021;-81
2023/11/01 06:00:47;;;;;;;15.30;6.07;;;12.70;99.90;;;;;;5047265;28;20024;-80
2023/11/01 06:03:16;;;;;;;13.00;5.53;;;12.80;99.90;;;;;;5048893;28;20020;-80
2023/11/01 06:05:42;;;;;;;11.45;4.75;;;12.80;99.90;;;;;;5048290;28;20393;-80
2023/11/01 06:08:09;;;;;;;14.00;5.80;;;12.80;99.90;;;;;;5048889;28;20075;-80
2023/11/01 06:10:35;;;;;;;15.38;5.50;;;12.80;99.90;;;;;;5046780;28;20285;-86
2023/11/01 06:13:02;;;;;;;14.38;5.32;;;12.90;99.90;;;;;;5048656;28;20363;-81
2023/11/01 06:15:27;;;;;;;16.95;5.50;;;12.90;99.90;;;;;;5048120;28;20128;-79
2023/11/01 06:17:53;;;;;;;15.75;5.72;;;12.90;99.90;;;;;;5048550;28;20456;-80
2023/11/01 06:20:19;;;;;;;18.60;4.82;;;12.90;99.90;;;;;;5048123;28;20017;-80
2023/11/01 06:22:45;;;;;;;16.52;5.50;;;13.00;99.90;;;;;;5048431;28;20032;-80
2023/11/01 06:25:11;;;;;;;14.85;4.82;;;13.00;99.90;;;;;;5047827;28;20397;-80
2023/11/01 06:27:38;;;;;;;16.70;5.15;;;13.00;99.90;;;;;;5048244;28;20385;-80
2023/11/01 06:30:05;;;;;;;15.60;5.45;;;13.00;99.90;;;;;;5047738;28;20109;-81
2023/11/01 06:32:35;;;;;;;17.27;4.30;;;13.00;99.90;;;;;;5047581;28;20028;-80
2023/11/01 06:35:01;;;;;;;15.98;4.93;;;13.10;99.90;;;;;;5047404;28;20021;-80
2023/11/01 06:37:27;;;;;;;11.25;3.90;;;13.10;99.90;;;;;;5046369;28;20027;-80
2023/11/01 06:39:53;;;;;;;19.00;4.38;;;13.10;99.90;;;;;;5047170;28;20033;-81
2023/11/01 06:42:19;;;;;;;21.20;4.50;;;13.10;99.90;;;;;;5047652;28;20031;-81
2023/11/01 06:44:44;;;;;;;15.05;4.18;;;13.10;99.90;;;;;;5047617;28;20120;-82
2023/11/01 06:47:10;;;;;;;17.92;4.55;;;13.10;99.90;;;;;;5046472;28;20021;-80
2023/11/01 06:49:38;;;;;;;21.30;5.25;;;13.10;99.90;;;;;;5047229;28;20043;-80
2023/11/01 06:52:05;;;;;;;10.93;4.00;;;13.10;99.90;;;;;;5047564;28;20497;-80
2023/11/01 06:54:30;;;;;;;14.00;3.88;;;13.10;99.90;;;;;;5047345;28;20074;-81
2023/11/01 06:56:56;;;;;;;23.27;4.00;;;13.10;99.90;;;;;;5046004;28;20025;-80
2023/11/01 06:59:22;;;;;;;14.20;3.83;;;13.20;99.90;;;;;;5047238;28;20131;-80
2023/11/01 07:01:48;;;;;;;19.30;4.70;;;13.20;99.90;;;;;;5047442;28;20587;-82
2023/11/01 07:04:15;;;;;;;17.27;3.78;;;13.20;99.90;;;;;;5046399;28;20048;-80
2023/11/01 07:06:42;;;;;;;15.52;4.10;;;13.20;99.90;;;;;;5047329;28;20508;-80
2023/11/01 07:09:09;;;;;;;15.48;4.20;;;13.20;99.90;;;;;;5045426;28;20375;-80
2023/11/01 07:11:38;;;;;;;17.45;4.57;;;13.20;99.90;;;;;;5045481;28;20513;-80
2023/11/01 07:14:04;;;;;;;18.63;5.13;;;13.30;99.90;;;;;;5044453;28;20516;-84
2023/11/01 07:16:31;;;;;;;24.65;4.35;;;13.30;99.90;;;;;;5045291;28;20025;-80
2023/11/01 07:18:58;;;;;;;21.63;5.13;;;13.30;99.90;;;;;;5047419;28;20025;-80
2023/11/01 07:21:24;;;;;;;17.75;4.13;;;13.30;99.90;;;;;;5046757;28;20036;-81
2023/11/01 07:23:50;;;;;;;19.90;5.10;;;13.30;99.90;;;;;;5047168;28;20667;-80
2023/11/01 07:26:16;;;;;;;15.63;3.90;;;13.30;99.90;;;;;;5045371;28;20056;-80
2023/11/01 07:28:42;;;;;;;21.33;3.88;;;13.30;99.90;;;;;;5042260;28;20029;-81
2023/11/01 07:31:08;;;;;;;18.33;4.28;;;13.30;99.90;;;;;;5044172;28;20032;-79
2023/11/01 07:33:34;;;;;;;14.65;3.17;;;13.30;99.90;;;;;;5042768;28;20059;-80
2023/11/01 07:35:59;;;;;;;17.58;3.97;;;13.30;99.90;;;;;;5046647;28;20547;-79
2023/11/01 07:38:25;;;;;;;14.73;3.45;;;13.30;99.90;;;;;;5045323;28;20021;-80
2023/11/01 07:40:51;;;;;;;14.82;3.53;;;13.30;99.90;;;;;;5046716;28;20481;-80
2023/11/01 07:43:16;;;;;;;13.80;3.40;;;13.30;99.90;;;;;;5047094;28;20025;-80
2023/11/01 07:45:42;;;;;;;17.92;3.47;;;13.30;99.90;;;;;;5046418;28;20029;-81
2023/11/01 07:48:08;;;;;;;22.25;3.50;;;13.30;99.90;;;;;;5047369;28;20095;-79
2023/11/01 07:50:34;;;;;;;15.15;3.47;;;13.30;99.90;;;;;;5045401;28;20053;-80
2023/11/01 07:53:00;;;;;;;14.60;3.42;;;13.30;99.90;;;;;;5046711;28;20044;-81
2023/11/01 07:55:26;;;;;;;17.55;3.25;;;13.40;99.90;;;;;;5046458;28;20029;-80
2023/11/01 07:57:52;;;;;;;15.70;3.53;;;13.40;99.90;;;;;;5046335;28;20631;-79
2023/11/01 08:00:17;;;;;;;14.13;2.78;;;13.40;99.90;;;;;;5045905;28;20040;-79
2023/11/01 08:02:43;;;;;;;14.32;3.45;;;13.40;99.90;;;;;;5043875;28;20131;-80
2023/11/01 08:05:09;;;;;;;18.17;3.35;;;13.40;99.90;;;;;;5043574;28;20928;-79
2023/11/01 08:07:35;;;;;;;18.38;3.60;;;13.40;99.90;;;;;;5046025;28;20025;-80
2023/11/01 08:10:01;;;;;;;13.45;2.85;;;13.40;99.90;;;;;;5046183;28;20029;-79
2023/11/01 08:12:27;;;;;;;13.77;3.17;;;13.40;99.90;;;;;;5045838;28;20036;-80
2023/11/01 08:14:52;;;;;;;19.10;3.35;;;13.40;99.90;;;;;;5046298;28;20029;-80
2023/11/01 08:17:18;;;;;;;15.43;3.25;;;13.40;99.90;;;;;;5046588;28;20884;-80
2023/11/01 08:19:44;;;;;;;16.92;3.70;;;13.50;99.90;;;;;;5044784;28;20025;-78
2023/11/01 08:22:13;;;;;;;14.98;2.90;;;13.50;99.90;;;;;;5049549;28;20057;-79
2023/11/01 08:24:42;;;;;;;15.52;2.97;;;13.50;99.90;;;;;;5047367;28;20028;-81
2023/11/01 08:27:08;;;;;;;19.58;3.10;;;13.50;99.90;;;;;;5047961;28;20070;-79
2023/11/01 08:29:35;;;;;;;16.90;2.95;;;13.50;99.90;;;;;;5050094;28;20359;-78
2023/11/01 08:32:02;;;;;;;15.40;3.35;;;13.50;99.90;;;;;;5048188;28;20123;-80
2023/11/01 08:34:28;;;;;;;11.00;2.55;;;13.50;99.90;;;;;;5050174;28;20025;-79
2023/11/01 08:36:53;;;;;;;14.98;2.90;;;13.60;99.90;;;;;;5050239;28;20020;-80
2023/11/01 08:39:19;;;;;;;18.63;3.55;;;13.50;99.90;;;;;;5050281;28;20031;-79
2023/11/01 08:41:45;;;;;;;13.48;2.70;;;13.60;99.90;;;;;;5047455;28;20025;-80
2023/11/01 08:44:11;;;;;;;15.57;2.90;;;13.60;99.90;;;;;;5045975;28;20109;-80
2023/11/01 08:46:36;;;;;;;15.50;3.10;;;13.60;99.90;;;;;;5047380;28;20713;-80
2023/11/01 08:49:02;;;;;;;18.35;3.38;;;13.60;99.90;;;;;;5048258;28;20440;-80
2023/11/01 08:51:28;;;;;;;14.05;3.47;;;13.60;99.90;;;;;;5049664;28;20072;-83
2023/11/01 08:53:53;;;;;;;16.80;3.40;;;13.60;99.90;;;;;;5048331;28;20033;-82
2023/11/01 08:56:19;;;;;;;14.77;2.85;;;13.60;99.90;;;;;;5049313;28;20108;-79
2023/11/01 08:58:45;;;;;;;19.45;3.67;;;13.60;99.90;;;;;;5047937;28;20065;-80
2023/11/01 09:01:12;;;;;;;15.68;3.70;;;13.60;99.90;;;;;;5047859;28;20098;-81
2023/11/01 09:03:38;;;;;;;17.75;3.45;;;13.70;99.90;;;;;;5043955;28;20029;-81
2023/11/01 09:06:04;;;;;;;11.57;2.70;;;13.60;99.90;;;;;;5038163;28;20021;-82
2023/11/01 09:08:29;;;;;;;12.18;3.13;;;13.70;99.90;;;;;;5043900;28;20643;-81
2023/11/01 09:10:56;;;;;;;14.93;3.58;;;13.70;99.90;;;;;;5046486;28;20021;-80
2023/11/01 09:13:22;;;;;;;10.73;2.33;;;13.70;99.90;;;;;;5044530;28;20028;-80
2023/11/01 09:15:48;;;;;;;16.10;3.13;;;13.70;99.90;;;;;;5046559;28;20044;-78
2023/11/01 09:18:13;;;;;;;13.00;2.42;;;13.70;99.90;;;;;;5048007;28;20382;-79
2023/11/01 09:20:39;;;;;;;19.58;3.85;;;13.80;99.90;;;;;;5047648;28;20171;-80
2023/11/01 09:23:05;;;;;;;15.57;2.92;;;13.80;99.90;;;;;;5044243;28;20103;-79
2023/11/01 09:25:31;;;;;;;11.35;2.40;;;13.80;99.90;;;;;;5045808;28;20107;-79
2023/11/01 09:27:58;;;;;;;13.63;3.42;;;13.80;99.90;;;;;;5048311;28;20127;-78
2023/11/01 09:30:23;;;;;;;12.15;2.83;;;13.80;99.90;;;;;;5044727;28;20056;-79
2023/11/01 09:32:49;;;;;;;22.40;3.88;;;13.90;99.90;;;;;;5046071;28;20061;-79
2023/11/01 09:35:15;;;;;;;15.85;3.03;;;13.90;99.90;;;;;;5047660;28;20028;-81
2023/11/01 09:37:41;;;;;;;12.65;2.13;;;13.90;99.90;;;;;;5046390;28;20040;-79
2023/11/01 09:40:11;;;;;;;17.30;2.60;;;13.90;99.90;;;;;;5047419;28;20236;-81
2023/11/01 09:42:40;;;;;;;12.57;3.20;;;13.90;99.90;;;;;;5045658;28;20533;-78
2023/11/01 09:45:10;;;;;;;12.93;2.58;;;13.90;99.90;;;;;;5048068;28;20455;-79
2023/11/01 09:47:37;;;;;;;14.88;3.25;;;13.90;99.90;;;;;;5044355;28;20062;-79
2023/11/01 09:50:05;;;;;;;15.38;2.72;;;14.00;99.90;;;;;;5044981;28;20045;-80
2023/11/01 09:52:31;;;;;;;11.27;2.95;;;14.00;99.90;;;;;;5047308;28;20024;-78
2023/11/01 09:54:56;;;;;;;12.55;2.33;;;14.00;99.90;;;;;;5047691;28;20036;-79
2023/11/01 09:57:24;;;;;;;10.77;2.60;;;14.10;99.90;;;;;;5045617;28;20059;-81
2023/11/01 09:59:51;;;;;;;16.65;2.72;;;14.20;99.90;;;;;;5048167;28;20025;-81
2023/11/01 10:02:17;;;;;;;13.73;2.80;;;14.20;99.90;;;;;;5047532;28;20028;-79
2023/11/01 10:04:43;;;;;;;10.30;2.40;;;14.20;99.90;;;;;;5047808;28;20029;-79
2023/11/01 10:07:10;;;;;;;12.77;2.72;;;14.30;99.90;;;;;;5039573;28;20021;-78
2023/11/01 10:09:37;;;;;;;12.65;2.40;;;14.30;99.90;;;;;;5044619;28;20021;-79
2023/11/01 10:12:08;;;;;;;10.15;2.67;;;14.30;99.90;;;;;;5041188;28;20136;-79
2023/11/01 10:14:37;;;;;;;14.68;2.28;;;14.30;99.90;;;;;;5048097;28;20044;-80
2023/11/01 10:17:04;;;;;;;6.82;1.80;;;14.30;99.90;;;;;;5046824;28;20026;-80
2023/11/01 10:19:30;;;;;;;12.27;2.42;;;14.30;99.90;;;;;;5046532;28;20025;-79
2023/11/01 10:21:57;;;;;;;12.82;2.67;;;14.40;99.90;;;;;;5040458;28;20050;-80
2023/11/01 10:24:27;;;;;;;10.32;2.63;;;14.40;99.90;;;;;;5043589;28;20021;-83
2023/11/01 10:26:57;;;;;;;12.82;2.50;;;14.40;99.90;;;;;;5046748;28;20059;-79
2023/11/01 10:29:23;;;;;;;15.02;3.03;;;14.40;99.90;;;;;;5042891;28;20083;-79
2023/11/01 10:31:59;;;;;;;12.43;2.95;;;14.40;99.90;;;;;;5046411;28;20021;-80
2023/11/01 10:34:29;;;;;;;12.77;2.80;;;14.40;99.90;;;;;;5047395;28;20027;-78
2023/11/01 10:36:57;;;;;;;9.68;2.25;;;14.40;99.90;;;;;;5047381;28;20033;-79
2023/11/01 10:39:24;;;;;;;10.80;3.00;;;14.40;99.90;;;;;;5047525;28;20647;-79
2023/11/01 10:41:51;;;;;;;7.63;2.17;;;14.50;99.90;;;;;;5047315;28;20032;-79
2023/11/01 10:44:18;;;;;;;8.50;2.13;;;14.50;99.90;;;;;;5047228;28;20017;-78
2023/11/01 10:46:44;;;;;;;10.32;2.55;;;14.50;99.90;;;;;;5047188;28;20025;-79
2023/11/01 10:49:10;;;;;;;7.55;2.10;;;14.50;99.90;;;;;;5047181;28;20024;-79
2023/11/01 10:51:37;;;;;;;9.27;2.22;;;14.50;99.90;;;;;;5047308;28;20087;-79
2023/11/01 10:54:04;;;;;;;9.55;2.50;;;14.50;99.90;;;;;;5047707;28;20366;-79
2023/11/01 10:56:29;;;;;;;11.45;2.45;;;14.50;99.90;;;;;;5042739;28;20388;-80
2023/11/01 10:59:20;;;;;;;14.88;2.50;;;14.50;99.90;;;;;;5044889;28;20031;-79
2023/11/01 11:01:50;;;;;;;7.60;2.05;;;14.50;99.90;;;;;;5033635;28;20091;-80
2023/11/01 11:04:32;;;;;;;8.75;2.22;;;14.50;99.90;;;;;;5045984;28;20106;-80
2023/11/01 11:07:25;;;;;;;11.48;2.33;;;14.50;99.90;;;;;;5033090;28;20033;-78
2023/11/01 11:10:19;;;;;;;12.13;2.42;;;14.50;99.90;;;;;;5047227;28;20029;-79
2023/11/01 11:12:44;;;;;;;8.45;2.63;;;14.60;99.90;;;;;;5048152;28;20036;-79
2023/11/01 11:15:10;;;;;;;10.30;2.85;;;14.70;99.90;;;;;;5048121;28;20017;-80
2023/11/01 11:17:38;;;;;;;11.02;2.88;;;14.70;99.90;;;;;;5046444;28;20332;-79
2023/11/01 11:20:10;;;;;;;12.38;2.50;;;14.80;99.90;;;;;;5046500;28;20465;-79
2023/11/01 11:22:58;;;;;;;9.05;2.25;;;14.90;99.90;;;;;;5046123;28;20031;-80
2023/11/01 11:25:45;;;;;;;14.43;3.03;;;14.90;99.90;;;;;;5047820;28;20029;-78
2023/11/01 11:28:32;;;;;;;8.80;2.40;;;15.00;99.90;;;;;;5046502;28;20451;-79
2023/11/01 11:31:06;;;;;;;13.18;2.72;;;15.00;99.90;;;;;;5039531;28;20041;-81
2023/11/01 11:33:36;;;;;;;10.25;3.15;;;15.00;99.90;;;;;;5047155;28;20391;-78
2023/11/01 11:36:18;;;;;;;9.50;2.60;;;15.10;99.90;;;;;;5047590;28;20112;-78
2023/11/01 11:38:50;;;;;;;11.98;2.63;;;15.10;99.90;;;;;;5047958;28;20028;-79
2023/11/01 11:41:16;;;;;;;10.43;2.58;;;15.10;99.90;;;;;;5043880;28;20036;-79
2023/11/01 11:44:02;;;;;;;9.52;2.00;;;15.20;99.90;;;;;;5044694;28;20037;-79
2023/11/01 11:46:34;;;;;;;12.95;2.38;;;15.30;99.90;;;;;;5045963;28;20017;-79
2023/11/01 11:49:02;;;;;;;9.70;2.22;;;15.40;99.90;;;;;;5046013;28;20074;-79
2023/11/01 11:51:33;;;;;;;10.88;2.65;;;15.40;99.90;;;;;;5045773;28;20090;-78
2023/11/01 11:54:10;;;;;;;10.57;2.50;;;15.50;99.90;;;;;;5041783;28;20112;-80
2023/11/01 11:56:36;;;;;;;8.60;2.00;;;15.50;99.90;;;;;;5046286;28;20108;-80
2023/11/01 11:59:03;;;;;;;15.05;3.13;;;15.50;99.90;;;;;;5053721;28;20136;-80
2023/11/01 12:01:29;;;;;;;7.80;2.08;;;15.50;99.90;;;;;;5047763;28;20024;-80
2023/11/01 12:03:56;;;;;;;8.00;2.20;;;15.50;99.90;;;;;;5054157;28;20029;-79
2023/11/01 12:06:24;;;;;;;8.60;2.00;;;15.60;99.90;;;;;;5051916;28;20056;-79
2023/11/01 12:08:50;;;;;;;8.93;1.90;;;15.60;99.90;;;;;;5050106;28;20040;-80
2023/11/01 12:11:16;;;;;;;7.38;2.40;;;15.60;99.90;;;;;;5047400;28;20499;-79
2023/11/01 12:13:49;;;;;;;10.23;2.38;;;15.70;99.90;;;;;;5050875;28;20033;-79
2023/11/01 12:16:29;;;;;;;9.85;2.00;;;15.70;99.90;;;;;;5052370;28;20052;-79
2023/11/01 12:19:19;;;;;;;8.85;2.33;;;15.70;99.90;;;;;;5048364;28;20044;-80
2023/11/01 12:21:46;;;;;;;7.05;1.70;;;15.80;99.90;;;;;;5048089;28;20036;-80
2023/11/01 12:24:16;;;;;;;8.38;1.85;;;15.80;99.90;;;;;;5052621;28;20024;-80
2023/11/01 12:27:06;;;;;;;7.53;1.45;;;15.80;99.90;;;;;;5052069;28;20024;-79
2023/11/01 12:29:46;;;;;;;7.80;1.70;;;15.80;99.90;;;;;;5046963;28;20474;-80
2023/11/01 12:32:16;;;;;;;10.38;2.08;;;15.70;99.90;;;;;;5049135;28;20017;-81
2023/11/01 12:34:48;;;;;;;;;;;15.70;99.90;;;;;;5046711;28;20025;-80
2023/11/01 12:37:18;;;;;;;8.60;2.22;;;15.70;99.90;;;;;;5046856;28;20373;-80
2023/11/01 12:40:12;;;;;;;8.48;1.75;;;15.70;99.90;;;;;;5050196;28;20130;-80
2023/11/01 12:42:39;;;;;;;7.00;1.75;;;15.60;99.90;;;;;;5043898;28;20037;-80